createdAt,value
2022-11-15T00:00:37.070Z,10.40
2022-11-15T00:03:27.330Z,10.40
2022-11-15T00:06:14.754Z,10.40
2022-11-15T00:09:02.715Z,10.30
2022-11-15T00:12:09.395Z,10.30
2022-11-15T00:14:56.678Z,10.30
2022-11-15T00:17:43.683Z,10.30
2022-11-15T00:20:30.881Z,10.30
2022-11-15T00:23:18.300Z,10.30
2022-11-15T00:26:05.981Z,10.30
2022-11-15T00:28:56.076Z,10.20
2022-11-15T00:31:43.054Z,10.20
2022-11-15T00:34:29.999Z,10.10
2022-11-15T00:37:17.041Z,10.10
2022-11-15T00:40:04.155Z,10.10
2022-11-15T00:42:50.938Z,10.00
2022-11-15T00:45:39.450Z,10.00
2022-11-15T00:48:26.800Z,10.00
2022-11-15T00:51:13.599Z,10.00
2022-11-15T00:54:21.000Z,9.90
2022-11-15T00:57:07.951Z,9.90
2022-11-15T00:59:55.039Z,9.90
2022-11-15T01:02:43.689Z,9.90
2022-11-15T01:05:31.215Z,9.80
2022-11-15T01:08:18.976Z,9.80
2022-11-15T01:11:08.982Z,9.80
2022-11-15T01:13:57.901Z,9.80
2022-11-15T01:16:45.076Z,9.80
2022-11-15T01:19:33.567Z,9.80
2022-11-15T01:22:20.593Z,9.70
2022-11-15T01:25:08.116Z,9.70
2022-11-15T01:28:16.124Z,9.70
2022-11-15T01:31:05.316Z,9.60
2022-11-15T01:33:52.659Z,9.60
2022-11-15T01:36:41.228Z,9.60
2022-11-15T01:39:28.533Z,9.50
2022-11-15T01:42:15.994Z,9.50
2022-11-15T01:45:03.419Z,9.50
2022-11-15T01:47:54.683Z,9.40
2022-11-15T01:50:41.685Z,9.40
2022-11-15T01:53:32.352Z,9.40
2022-11-15T01:56:22.711Z,9.30
2022-11-15T01:59:11.205Z,9.30
2022-11-15T02:01:58.727Z,9.30
2022-11-15T02:04:48.285Z,9.30
2022-11-15T02:07:37.477Z,9.20
2022-11-15T02:10:26.891Z,9.20
2022-11-15T02:13:13.979Z,9.20
2022-11-15T02:16:11.701Z,9.20
2022-11-15T02:19:05.728Z,9.10
2022-11-15T02:22:02.807Z,9.10
2022-11-15T02:25:14.554Z,9.10
2022-11-15T02:28:50.259Z,9.00
2022-11-15T02:31:49.195Z,9.00
2022-11-15T02:34:46.370Z,9.00
2022-11-15T02:37:58.987Z,9.00
2022-11-15T02:40:55.472Z,8.90
2022-11-15T02:44:00.294Z,8.90
2022-11-15T02:47:11.018Z,8.90
2022-11-15T02:50:02.180Z,8.90
2022-11-15T02:52:51.511Z,8.80
2022-11-15T02:55:41.110Z,8.80
2022-11-15T02:58:59.952Z,8.80
2022-11-15T03:02:06.009Z,8.70
2022-11-15T03:04:58.351Z,8.70
2022-11-15T03:07:59.436Z,8.70
2022-11-15T03:11:00.698Z,8.70
2022-11-15T03:13:56.324Z,8.70
2022-11-15T03:16:52.308Z,8.60
2022-11-15T03:19:46.980Z,8.60
2022-11-15T03:22:39.400Z,8.60
2022-11-15T03:25:29.064Z,8.50
2022-11-15T03:28:20.721Z,8.50
2022-11-15T03:31:22.987Z,8.50
2022-11-15T03:34:22.276Z,8.50
2022-11-15T03:37:11.255Z,8.40
2022-11-15T03:39:58.453Z,8.40
2022-11-15T03:42:57.006Z,8.40
2022-11-15T03:45:48.922Z,8.40
2022-11-15T03:48:42.027Z,8.30
2022-11-15T03:51:31.792Z,8.30
2022-11-15T03:54:19.115Z,8.30
2022-11-15T03:57:06.109Z,8.20
2022-11-15T03:59:53.106Z,8.20
2022-11-15T04:02:40.100Z,8.20
2022-11-15T04:05:27.080Z,8.20
2022-11-15T04:08:15.623Z,8.20
2022-11-15T04:11:02.768Z,8.20
2022-11-15T04:13:49.700Z,8.20
2022-11-15T04:16:42.593Z,8.20
2022-11-15T04:19:48.349Z,8.10
2022-11-15T04:22:52.758Z,8.20
2022-11-15T04:25:41.542Z,8.10
2022-11-15T04:28:28.662Z,8.10
2022-11-15T04:31:15.568Z,8.10
2022-11-15T04:34:02.993Z,8.10
2022-11-15T04:37:06.862Z,8.10
2022-11-15T04:39:54.148Z,8.10
2022-11-15T04:42:44.030Z,8.10
2022-11-15T04:45:31.135Z,8.10
2022-11-15T04:48:18.534Z,8.10
2022-11-15T04:51:06.097Z,8.00
2022-11-15T04:53:53.093Z,8.00
2022-11-15T04:56:40.248Z,8.00
2022-11-15T04:59:28.542Z,8.00
2022-11-15T05:02:15.572Z,8.00
2022-11-15T05:05:01.595Z,7.90
2022-11-15T05:07:48.682Z,7.90
2022-11-15T05:10:35.657Z,7.90
2022-11-15T05:13:22.451Z,7.90
2022-11-15T05:16:11.123Z,7.80
2022-11-15T05:18:58.458Z,7.80
2022-11-15T05:21:45.284Z,7.80
2022-11-15T05:24:32.448Z,7.70
2022-11-15T05:27:19.485Z,7.70
2022-11-15T05:30:07.808Z,7.70
2022-11-15T05:32:56.513Z,7.60
2022-11-15T05:35:49.222Z,7.60
2022-11-15T05:38:36.606Z,7.60
2022-11-15T05:41:30.041Z,7.60
2022-11-15T05:44:22.995Z,7.50
2022-11-15T05:47:14.998Z,7.50
2022-11-15T05:50:04.153Z,7.50
2022-11-15T05:52:52.000Z,7.50
2022-11-15T05:55:40.786Z,7.40
2022-11-15T05:58:27.847Z,7.40
2022-11-15T06:01:15.158Z,7.40
2022-11-15T06:04:02.194Z,7.40
2022-11-15T06:06:50.743Z,7.40
2022-11-15T06:09:37.698Z,7.30
2022-11-15T06:12:24.792Z,7.30
2022-11-15T06:15:12.140Z,7.30
2022-11-15T06:17:59.581Z,7.30
2022-11-15T06:20:46.760Z,7.20
2022-11-15T06:23:36.946Z,7.20
2022-11-15T06:26:24.247Z,7.20
2022-11-15T06:29:11.434Z,7.20
2022-11-15T06:31:58.229Z,7.20
2022-11-15T06:34:45.271Z,7.20
2022-11-15T06:37:32.426Z,7.20
2022-11-15T06:40:20.944Z,7.10
2022-11-15T06:43:09.392Z,7.10
2022-11-15T06:45:56.352Z,7.10
2022-11-15T06:49:58.114Z,7.10
2022-11-15T06:52:45.460Z,7.10
2022-11-15T06:55:33.780Z,7.10
2022-11-15T06:58:22.645Z,7.10
2022-11-15T07:01:12.300Z,7.10
2022-11-15T07:03:59.957Z,7.10
2022-11-15T07:06:49.349Z,7.10
2022-11-15T07:09:36.712Z,7.10
2022-11-15T07:12:25.077Z,7.10
2022-11-15T07:15:12.736Z,7.10
2022-11-15T07:18:03.240Z,7.20
2022-11-15T07:20:50.653Z,7.10
2022-11-15T07:23:39.379Z,7.10
2022-11-15T07:26:26.410Z,7.10
2022-11-15T07:29:15.120Z,7.10
2022-11-15T07:32:02.163Z,7.10
2022-11-15T07:34:49.127Z,7.10
2022-11-15T07:37:36.028Z,7.10
2022-11-15T07:40:23.525Z,7.10
2022-11-15T07:43:11.343Z,7.10
2022-11-15T07:46:00.006Z,7.10
2022-11-15T07:48:47.340Z,7.20
2022-11-15T07:51:34.282Z,7.20
2022-11-15T07:54:21.244Z,7.20
2022-11-15T07:57:10.214Z,7.30
2022-11-15T07:59:57.154Z,7.30
2022-11-15T08:02:45.734Z,7.30
2022-11-15T08:05:33.102Z,7.30
2022-11-15T08:08:20.593Z,7.30
2022-11-15T08:11:07.610Z,7.40
2022-11-15T08:13:54.558Z,7.40
2022-11-15T08:16:41.438Z,7.40
2022-11-15T08:19:30.108Z,7.50
2022-11-15T08:22:17.190Z,7.50
2022-11-15T08:25:04.640Z,7.60
2022-11-15T08:27:54.208Z,7.60
2022-11-15T08:30:46.436Z,7.60
2022-11-15T08:33:35.113Z,7.70
2022-11-15T08:36:23.991Z,7.70
2022-11-15T08:39:13.608Z,7.80
2022-11-15T08:42:01.188Z,7.80
2022-11-15T08:44:48.392Z,7.90
2022-11-15T08:47:35.711Z,8.00
2022-11-15T08:50:22.912Z,8.00
2022-11-15T08:53:12.933Z,8.10
2022-11-15T08:56:00.090Z,8.20
2022-11-15T08:58:47.885Z,8.30
2022-11-15T09:01:35.024Z,8.40
2022-11-15T09:04:22.414Z,8.50
2022-11-15T09:07:09.756Z,8.60
2022-11-15T09:09:58.292Z,8.60
2022-11-15T09:12:45.359Z,8.80
2022-11-15T09:15:32.450Z,8.80
2022-11-15T09:18:22.233Z,9.00
2022-11-15T09:21:11.043Z,9.00
2022-11-15T09:23:58.774Z,9.20
2022-11-15T09:26:47.493Z,9.30
2022-11-15T09:29:34.859Z,9.40
2022-11-15T09:32:23.876Z,9.50
2022-11-15T09:35:10.959Z,9.60
2022-11-15T09:38:00.226Z,9.70
2022-11-15T09:40:53.907Z,10.00
2022-11-15T09:43:55.488Z,9.90
2022-11-15T09:46:53.171Z,9.90
2022-11-15T09:49:40.558Z,10.10
2022-11-15T09:52:19.486Z,10.20
2022-11-15T09:54:54.711Z,10.30
2022-11-15T09:57:33.867Z,10.30
2022-11-15T10:03:14.044Z,10.60
2022-11-15T10:05:45.131Z,10.70
2022-11-15T10:08:33.419Z,10.70
2022-11-15T10:11:35.663Z,10.90
2022-11-15T10:13:59.386Z,11.00
2022-11-15T10:17:22.686Z,11.10
2022-11-15T10:20:07.841Z,11.20
2022-11-15T10:22:42.609Z,11.30
2022-11-15T10:25:25.001Z,11.40
2022-11-15T10:27:58.520Z,11.50
2022-11-15T10:30:39.950Z,11.60
2022-11-15T10:33:24.842Z,11.70
2022-11-15T10:36:25.712Z,11.90
2022-11-15T10:38:59.893Z,12.00
2022-11-15T10:41:39.942Z,12.00
2022-11-15T10:44:26.633Z,12.20
2022-11-15T10:47:28.256Z,12.30
2022-11-15T10:50:06.038Z,12.40
2022-11-15T10:52:37.580Z,12.50
2022-11-15T10:55:25.261Z,12.60
2022-11-15T10:57:56.200Z,12.70
2022-11-15T11:00:35.531Z,12.80
2022-11-15T11:03:08.095Z,12.90
2022-11-15T11:05:42.718Z,13.10
2022-11-15T11:08:26.064Z,13.20
2022-11-15T11:11:01.970Z,13.30
2022-11-15T11:13:34.049Z,13.40
2022-11-15T11:16:39.158Z,13.60
2022-11-15T11:19:25.420Z,13.70
2022-11-15T11:22:06.168Z,13.80
2022-11-15T11:24:44.905Z,14.00
2022-11-15T11:27:39.564Z,14.10
2022-11-15T11:30:17.312Z,14.30
2022-11-15T11:33:19.631Z,14.40
2022-11-15T11:36:01.029Z,14.60
2022-11-15T11:38:50.883Z,14.70
2022-11-15T11:41:34.017Z,14.80
2022-11-15T11:44:19.075Z,14.90
2022-11-15T11:46:58.803Z,15.00
2022-11-15T11:49:37.950Z,15.10
2022-11-15T11:52:13.674Z,15.30
2022-11-15T11:54:55.487Z,15.40
2022-11-15T11:57:39.607Z,15.40
2022-11-15T12:00:20.798Z,15.50
2022-11-15T12:03:05.753Z,15.60
2022-11-15T12:05:39.747Z,15.70
2022-11-15T12:08:30.553Z,15.70
2022-11-15T12:11:10.877Z,15.80
2022-11-15T12:13:40.619Z,15.80
2022-11-15T12:16:17.108Z,15.90
2022-11-15T12:18:50.224Z,16.00
2022-11-15T12:21:28.742Z,16.00
2022-11-15T12:24:06.314Z,16.00
2022-11-15T12:26:43.087Z,16.10
2022-11-15T12:29:22.518Z,16.10
2022-11-15T12:31:56.671Z,16.10
2022-11-15T12:34:47.271Z,16.20
2022-11-15T12:37:50.593Z,16.20
2022-11-15T12:40:32.539Z,16.20
2022-11-15T12:43:44.872Z,16.30
2022-11-15T12:46:22.703Z,16.30
2022-11-15T12:48:56.082Z,16.30
2022-11-15T12:52:08.072Z,16.40
2022-11-15T12:55:03.081Z,16.40
2022-11-15T12:57:43.766Z,16.40
2022-11-15T13:00:47.054Z,16.40
2022-11-15T13:03:25.611Z,16.40
2022-11-15T13:06:09.121Z,16.40
2022-11-15T13:08:51.919Z,16.50
2022-11-15T13:11:47.670Z,16.50
2022-11-15T13:14:51.605Z,16.50
2022-11-15T13:17:37.294Z,16.50
2022-11-15T13:20:26.264Z,16.50
2022-11-15T13:23:03.531Z,16.50
2022-11-15T13:26:12.847Z,16.50
2022-11-15T13:28:47.181Z,16.50
2022-11-15T13:31:31.343Z,16.50
2022-11-15T13:34:44.551Z,16.50
2022-11-15T13:37:15.700Z,16.50
2022-11-15T13:39:44.262Z,16.50
2022-11-15T13:42:18.359Z,16.50
2022-11-15T13:45:15.965Z,16.40
2022-11-15T13:47:44.659Z,16.40
2022-11-15T13:50:15.843Z,16.40
2022-11-15T13:52:49.965Z,16.40
2022-11-15T13:55:22.525Z,16.40
2022-11-15T13:57:56.468Z,16.40
2022-11-15T14:00:34.503Z,16.40
2022-11-15T14:03:15.553Z,16.40
2022-11-15T14:05:46.172Z,16.40
2022-11-15T14:08:26.068Z,16.30
2022-11-15T14:11:11.890Z,16.30
2022-11-15T14:13:40.518Z,16.30
2022-11-15T14:16:20.604Z,16.30
2022-11-15T14:18:52.154Z,16.20
2022-11-15T14:21:22.762Z,16.20
2022-11-15T14:23:51.705Z,16.20
2022-11-15T14:26:32.720Z,16.20
2022-11-15T14:29:25.781Z,16.20
2022-11-15T14:31:54.631Z,16.10
2022-11-15T14:34:23.582Z,16.10
2022-11-15T14:36:53.508Z,16.10
2022-11-15T14:39:23.267Z,16.00
2022-11-15T14:41:51.938Z,16.00
2022-11-15T14:44:21.670Z,16.00
2022-11-15T14:46:50.277Z,15.90
2022-11-15T14:49:18.882Z,15.90
2022-11-15T14:51:47.468Z,15.80
2022-11-15T14:54:17.443Z,15.80
2022-11-15T14:56:46.096Z,15.70
2022-11-15T14:59:14.603Z,15.70
2022-11-15T15:01:43.205Z,15.70
2022-11-15T15:04:13.026Z,15.60
2022-11-15T15:06:41.676Z,15.60
2022-11-15T15:09:10.242Z,15.50
2022-11-15T15:11:40.239Z,15.50
2022-11-15T15:14:10.354Z,15.40
2022-11-15T15:16:39.026Z,15.30
2022-11-15T15:19:07.513Z,15.30
2022-11-15T15:21:37.633Z,15.20
2022-11-15T15:24:07.011Z,15.10
2022-11-15T15:26:37.643Z,15.10
2022-11-15T15:29:09.874Z,15.00
2022-11-15T15:31:38.539Z,14.90
2022-11-15T15:34:09.740Z,14.90
2022-11-15T15:36:42.429Z,14.90
2022-11-15T15:39:12.617Z,14.80
2022-11-15T15:41:41.166Z,14.70
2022-11-15T15:44:11.156Z,14.60
2022-11-15T15:46:39.707Z,14.60
2022-11-15T15:49:11.406Z,14.50
2022-11-15T15:51:39.989Z,14.50
2022-11-15T15:54:08.653Z,14.40
2022-11-15T15:56:37.228Z,14.40
2022-11-15T15:59:05.939Z,14.30
2022-11-15T16:01:35.987Z,14.30
2022-11-15T16:04:04.548Z,14.20
2022-11-15T16:06:43.354Z,14.10
2022-11-15T16:09:16.831Z,14.00
2022-11-15T16:11:48.355Z,14.00
2022-11-15T16:14:17.130Z,13.90
2022-11-15T16:16:47.116Z,13.80
2022-11-15T16:19:15.697Z,13.80
2022-11-15T16:21:44.311Z,13.70
2022-11-15T16:24:12.914Z,13.70
2022-11-15T16:26:41.993Z,13.60
2022-11-15T16:29:11.410Z,13.60
2022-11-15T16:31:40.190Z,13.50
2022-11-15T16:34:10.398Z,13.50
2022-11-15T16:36:38.980Z,13.40
2022-11-15T16:39:07.641Z,13.30
2022-11-15T16:41:36.295Z,13.30
2022-11-15T16:44:04.915Z,13.30
2022-11-15T16:46:33.917Z,13.20
2022-11-15T16:49:02.715Z,13.10
2022-11-15T16:51:32.691Z,13.10
2022-11-15T16:54:01.356Z,13.00
2022-11-15T16:56:32.083Z,13.00
2022-11-15T16:59:02.304Z,12.90
2022-11-15T17:01:35.492Z,12.90
2022-11-15T17:04:12.798Z,12.80
2022-11-15T17:06:44.933Z,12.80
2022-11-15T17:09:16.259Z,12.70
2022-11-15T17:11:45.466Z,12.70
2022-11-15T17:14:14.597Z,12.60
2022-11-15T17:16:44.541Z,12.60
2022-11-15T17:19:18.042Z,12.50
2022-11-15T17:21:50.570Z,12.50
2022-11-15T17:24:21.431Z,12.40
2022-11-15T17:26:50.540Z,12.40
2022-11-15T17:29:19.116Z,12.30
2022-11-15T17:31:47.748Z,12.30
2022-11-15T17:34:17.151Z,12.30
2022-11-15T17:36:47.729Z,12.20
2022-11-15T17:39:16.415Z,12.20
2022-11-15T17:41:44.953Z,12.10
2022-11-15T17:44:13.497Z,12.10
2022-11-15T17:46:42.115Z,12.10
2022-11-15T17:49:10.725Z,12.00
2022-11-15T17:51:39.357Z,12.00
2022-11-15T17:54:12.732Z,11.90
2022-11-15T17:56:42.660Z,11.90
2022-11-15T17:59:15.957Z,11.90
2022-11-15T18:01:47.243Z,11.80
2022-11-15T18:04:15.995Z,11.80
2022-11-15T18:06:44.804Z,11.80
2022-11-15T18:09:14.659Z,11.70
2022-11-15T18:11:50.561Z,11.70
2022-11-15T18:14:20.496Z,11.60
2022-11-15T18:16:49.162Z,11.60
2022-11-15T18:19:17.677Z,11.60
2022-11-15T18:21:59.230Z,11.60
2022-11-15T18:24:32.493Z,11.50
2022-11-15T18:27:03.414Z,11.50
2022-11-15T18:29:33.365Z,11.50
2022-11-15T18:32:05.127Z,11.40
2022-11-15T18:34:34.229Z,11.30
2022-11-15T18:37:03.811Z,11.30
2022-11-15T18:39:33.879Z,11.30
2022-11-15T18:42:03.329Z,11.30
2022-11-15T18:44:32.501Z,11.20
2022-11-15T18:47:01.259Z,11.20
2022-11-15T18:49:29.996Z,11.10
2022-11-15T18:51:58.578Z,11.10
2022-11-15T18:54:31.506Z,11.10
2022-11-15T18:57:01.953Z,11.00
2022-11-15T18:59:31.151Z,11.00
2022-11-15T19:01:59.781Z,11.00
2022-11-15T19:04:28.598Z,11.00
2022-11-15T19:06:57.201Z,10.90
2022-11-15T19:09:31.989Z,10.90
2022-11-15T19:12:02.319Z,10.90
2022-11-15T19:14:31.025Z,10.90
2022-11-15T19:16:59.567Z,10.80
2022-11-15T19:19:29.379Z,10.80
2022-11-15T19:21:58.645Z,10.80
2022-11-15T19:24:27.689Z,10.70
2022-11-15T19:26:56.302Z,10.70
2022-11-15T19:29:26.239Z,10.70
2022-11-15T19:31:54.727Z,10.70
2022-11-15T19:34:23.371Z,10.60
2022-11-15T19:36:51.914Z,10.60
2022-11-15T19:39:20.506Z,10.60
2022-11-15T19:41:50.114Z,10.50
2022-11-15T19:44:18.991Z,10.50
2022-11-15T19:46:49.053Z,10.50
2022-11-15T19:49:17.663Z,10.40
2022-11-15T19:51:48.446Z,10.40
2022-11-15T19:54:17.634Z,10.40
2022-11-15T19:56:46.807Z,10.30
2022-11-15T19:59:15.370Z,10.30
2022-11-15T20:01:43.960Z,10.30
2022-11-15T20:04:13.970Z,10.20
2022-11-15T20:06:44.278Z,10.20
2022-11-15T20:09:17.848Z,10.20
2022-11-15T20:11:46.375Z,10.20
2022-11-15T20:14:15.227Z,10.10
2022-11-15T20:16:44.468Z,10.10
2022-11-15T20:19:15.984Z,10.00
2022-11-15T20:21:45.095Z,10.00
2022-11-15T20:24:13.636Z,10.00
2022-11-15T20:26:43.728Z,10.00
2022-11-15T20:29:12.458Z,10.00
2022-11-15T20:31:40.984Z,10.00
2022-11-15T20:34:09.692Z,10.00
2022-11-15T20:36:39.662Z,10.00
2022-11-15T20:39:08.186Z,9.90
2022-11-15T20:41:36.679Z,9.90
2022-11-15T20:44:05.531Z,9.90
2022-11-15T20:46:34.085Z,9.90
2022-11-15T20:49:02.627Z,9.90
2022-11-15T20:51:31.567Z,9.90
2022-11-15T20:54:02.173Z,9.90
2022-11-15T20:56:31.057Z,9.80
2022-11-15T20:58:59.691Z,9.80
2022-11-15T21:01:29.383Z,9.80
2022-11-15T21:03:59.368Z,9.80
2022-11-15T21:06:28.433Z,9.80
2022-11-15T21:09:15.139Z,9.70
2022-11-15T21:12:02.353Z,9.70
2022-11-15T21:14:31.386Z,9.70
2022-11-15T21:17:00.001Z,9.60
2022-11-15T21:19:34.072Z,9.60
2022-11-15T21:22:07.266Z,9.60
2022-11-15T21:24:35.871Z,9.60
2022-11-15T21:27:05.847Z,9.60
2022-11-15T21:29:40.227Z,9.60
2022-11-15T21:32:10.589Z,9.50
2022-11-15T21:34:39.625Z,9.50
2022-11-15T21:37:10.544Z,9.50
2022-11-15T21:39:39.452Z,9.50
2022-11-15T21:42:09.539Z,9.50
2022-11-15T21:44:38.099Z,9.40
2022-11-15T21:47:06.782Z,9.40
2022-11-15T21:49:35.364Z,9.40
2022-11-15T21:52:03.956Z,9.30
2022-11-15T21:54:32.632Z,9.30
2022-11-15T21:57:01.178Z,9.30
2022-11-15T21:59:31.127Z,9.30
2022-11-15T22:02:17.132Z,9.30
2022-11-15T22:04:45.679Z,9.20
2022-11-15T22:07:14.334Z,9.20
2022-11-15T22:09:42.913Z,9.10
2022-11-15T22:12:11.449Z,9.10
2022-11-15T22:14:41.466Z,9.10
2022-11-15T22:17:13.143Z,9.00
2022-11-15T22:19:52.166Z,9.00
2022-11-15T22:22:21.099Z,9.00
2022-11-15T22:24:49.773Z,9.00
2022-11-15T22:27:18.536Z,9.00
2022-11-15T22:29:48.594Z,8.90
2022-11-15T22:32:17.276Z,8.90
2022-11-15T22:34:45.886Z,8.90
2022-11-15T22:37:20.756Z,8.90
2022-11-15T22:39:50.235Z,8.90
2022-11-15T22:42:23.476Z,8.80
2022-11-15T22:44:54.111Z,8.80
2022-11-15T22:47:22.834Z,8.80
2022-11-15T22:49:51.533Z,8.80
2022-11-15T22:52:20.537Z,8.80
2022-11-15T22:54:49.228Z,8.80
2022-11-15T22:57:17.822Z,8.80
2022-11-15T22:59:46.686Z,8.70
2022-11-15T23:02:16.695Z,8.70
2022-11-15T23:04:46.372Z,8.70
2022-11-15T23:07:15.410Z,8.70
2022-11-15T23:09:49.249Z,8.70
2022-11-15T23:12:38.209Z,8.70
2022-11-15T23:15:08.024Z,8.70
2022-11-15T23:17:38.263Z,8.60
2022-11-15T23:20:36.424Z,8.60
2022-11-15T23:22:56.344Z,8.70
2022-11-15T23:25:24.926Z,8.60
2022-11-15T23:27:53.536Z,8.60
2022-11-15T23:30:39.683Z,8.60
2022-11-15T23:33:41.821Z,8.60
2022-11-15T23:36:10.743Z,8.60
2022-11-15T23:38:39.454Z,8.60
2022-11-15T23:41:08.425Z,8.60
2022-11-15T23:43:37.092Z,8.50
2022-11-15T23:46:05.757Z,8.50
2022-11-15T23:48:35.963Z,8.50
2022-11-15T23:51:04.927Z,8.50
2022-11-15T23:53:33.585Z,8.50
2022-11-15T23:56:05.423Z,8.50
2022-11-15T23:58:34.335Z,8.50
